createdAt,value
2022-12-16T00:00:14.888Z,13.43
2022-12-16T00:02:41.924Z,14.03
2022-12-16T00:05:08.854Z,13.57
2022-12-16T00:07:35.496Z,12.87
2022-12-16T00:10:02.209Z,14.13
2022-12-16T00:12:28.879Z,11.70
2022-12-16T00:14:55.481Z,13.07
2022-12-16T00:17:22.289Z,13.35
2022-12-16T00:19:48.882Z,13.60
2022-12-16T00:22:15.570Z,12.50
2022-12-16T00:24:42.129Z,15.50
2022-12-16T00:27:08.744Z,10.93
2022-12-16T00:29:35.646Z,11.63
2022-12-16T00:32:02.946Z,11.77
2022-12-16T00:34:29.676Z,12.10
2022-12-16T00:36:56.385Z,13.57
2022-12-16T00:39:23.076Z,11.00
2022-12-16T00:41:50.912Z,12.40
2022-12-16T00:44:18.550Z,9.93
2022-12-16T00:46:45.174Z,11.13
2022-12-16T00:49:11.834Z,11.30
2022-12-16T00:51:38.613Z,12.60
2022-12-16T00:54:05.349Z,11.33
2022-12-16T00:56:31.920Z,10.23
2022-12-16T00:58:58.545Z,10.73
2022-12-16T01:01:25.369Z,10.60
2022-12-16T01:03:52.329Z,12.63
2022-12-16T01:06:19.061Z,10.70
2022-12-16T01:08:48.734Z,9.60
2022-12-16T01:11:17.112Z,10.60
2022-12-16T01:13:44.069Z,11.70
2022-12-16T01:16:10.735Z,11.67
2022-12-16T01:18:37.778Z,10.53
2022-12-16T01:21:05.062Z,11.03
2022-12-16T01:23:32.370Z,11.20
2022-12-16T01:26:00.136Z,9.30
2022-12-16T01:28:30.109Z,9.77
2022-12-16T01:30:58.113Z,8.77
2022-12-16T01:33:24.657Z,9.03
2022-12-16T01:35:57.962Z,9.07
2022-12-16T01:38:24.555Z,6.77
2022-12-16T01:40:51.903Z,8.77
2022-12-16T01:43:19.874Z,9.07
2022-12-16T01:45:46.462Z,7.30
2022-12-16T01:48:27.723Z,8.60
2022-12-16T01:50:58.758Z,5.73
2022-12-16T01:53:25.466Z,8.30
2022-12-16T01:55:53.084Z,5.47
2022-12-16T01:58:21.632Z,6.23
2022-12-16T02:00:48.760Z,5.37
2022-12-16T02:03:16.138Z,6.83
2022-12-16T02:05:43.458Z,8.23
2022-12-16T02:08:10.154Z,6.53
2022-12-16T02:13:24.755Z,7.17
2022-12-16T02:16:13.874Z,7.20
2022-12-16T02:18:52.437Z,5.80
2022-12-16T02:21:28.076Z,5.83
2022-12-16T02:24:00.991Z,8.17
2022-12-16T02:26:36.583Z,5.93
2022-12-16T02:29:22.084Z,8.50
2022-12-16T02:32:06.468Z,7.30
2022-12-16T02:34:46.988Z,6.17
2022-12-16T02:37:13.738Z,7.17
2022-12-16T02:39:43.654Z,6.97
2022-12-16T02:42:16.678Z,6.80
2022-12-16T02:47:36.331Z,6.70
2022-12-16T02:50:03.037Z,5.37
2022-12-16T02:52:30.847Z,5.43
2022-12-16T02:55:02.100Z,5.63
2022-12-16T02:57:44.137Z,6.25
2022-12-16T03:00:14.444Z,6.03
2022-12-16T03:02:50.886Z,5.87
2022-12-16T03:05:36.588Z,5.53
2022-12-16T03:08:05.704Z,5.53
2022-12-16T03:10:37.606Z,5.57
2022-12-16T03:13:05.669Z,5.30
2022-12-16T03:15:34.178Z,7.73
2022-12-16T03:20:45.701Z,6.47
2022-12-16T03:23:17.703Z,6.47
2022-12-16T03:25:45.866Z,6.83
2022-12-16T03:28:21.890Z,6.77
2022-12-16T03:30:51.820Z,7.10
2022-12-16T03:33:21.652Z,7.13
2022-12-16T03:36:08.260Z,5.13
2022-12-16T03:38:35.696Z,5.40
2022-12-16T03:41:03.051Z,6.70
2022-12-16T03:43:29.909Z,6.53
2022-12-16T03:45:59.748Z,6.13
2022-12-16T03:48:26.663Z,5.37
2022-12-16T03:53:34.335Z,6.50
2022-12-16T03:56:01.237Z,7.13
2022-12-16T03:58:27.883Z,6.10
2022-12-16T04:00:54.558Z,6.53
2022-12-16T04:03:26.678Z,4.10
2022-12-16T04:05:53.406Z,5.63
2022-12-16T04:11:19.433Z,5.60
2022-12-16T04:14:04.772Z,9.17
2022-12-16T04:16:50.121Z,6.40
2022-12-16T04:19:41.141Z,9.40
2022-12-16T04:22:33.599Z,6.83
2022-12-16T04:27:53.873Z,7.03
2022-12-16T04:30:21.300Z,6.97
2022-12-16T04:33:09.246Z,5.67
2022-12-16T04:35:54.751Z,5.20
2022-12-16T04:38:39.825Z,6.37
2022-12-16T04:44:24.596Z,6.60
2022-12-16T04:47:10.054Z,5.10
2022-12-16T04:49:55.295Z,6.97
2022-12-16T04:52:40.760Z,7.13
2022-12-16T04:55:26.637Z,6.47
2022-12-16T05:01:15.455Z,4.83
2022-12-16T05:04:00.667Z,7.27
2022-12-16T05:06:45.830Z,6.07
2022-12-16T05:09:31.380Z,7.10
2022-12-16T05:12:16.733Z,5.50
2022-12-16T05:15:02.256Z,5.67
2022-12-16T05:17:47.662Z,9.10
2022-12-16T05:20:49.827Z,5.63
2022-12-16T05:23:35.553Z,8.17
2022-12-16T05:26:20.959Z,8.50
2022-12-16T05:29:06.411Z,8.67
2022-12-16T05:34:50.940Z,5.70
2022-12-16T05:37:36.396Z,5.50
2022-12-16T05:40:21.966Z,5.63
2022-12-16T05:43:10.862Z,4.80
2022-12-16T05:45:59.546Z,10.17
2022-12-16T05:48:47.892Z,13.07
2022-12-16T05:51:33.389Z,13.27
2022-12-16T05:54:18.507Z,9.53
2022-12-16T05:57:03.764Z,9.30
2022-12-16T05:59:49.328Z,8.57
2022-12-16T06:02:34.858Z,6.00
2022-12-16T06:05:20.192Z,8.40
2022-12-16T06:08:11.767Z,5.33
2022-12-16T06:10:57.094Z,4.13
2022-12-16T06:13:42.456Z,6.50
2022-12-16T06:16:27.949Z,6.80
2022-12-16T06:19:13.203Z,8.80
2022-12-16T06:21:58.764Z,45.80
2022-12-16T06:24:44.520Z,44.87
2022-12-16T06:27:29.995Z,23.37
2022-12-16T06:30:15.385Z,19.20
2022-12-16T06:33:01.297Z,15.90
2022-12-16T06:35:46.732Z,13.27
2022-12-16T06:38:32.332Z,17.97
2022-12-16T06:41:17.903Z,14.00
2022-12-16T06:44:03.471Z,10.93
2022-12-16T06:46:48.747Z,8.93
2022-12-16T06:49:34.168Z,7.50
2022-12-16T06:52:19.727Z,11.37
2022-12-16T06:55:04.937Z,11.13
2022-12-16T06:57:50.321Z,10.60
2022-12-16T07:00:35.739Z,9.03
2022-12-16T07:03:21.080Z,9.43
2022-12-16T07:06:06.221Z,8.07
2022-12-16T07:08:51.459Z,8.27
2022-12-16T07:11:36.882Z,7.23
2022-12-16T07:14:22.320Z,9.90
2022-12-16T07:17:10.166Z,9.33
2022-12-16T07:20:18.956Z,7.00
2022-12-16T07:23:13.166Z,10.73
2022-12-16T07:26:01.892Z,9.30
2022-12-16T07:28:47.022Z,16.07
2022-12-16T07:31:32.644Z,7.40
2022-12-16T07:34:17.988Z,10.13
2022-12-16T07:37:03.260Z,11.33
2022-12-16T07:39:52.804Z,15.23
2022-12-16T07:42:40.148Z,18.13
2022-12-16T07:45:25.587Z,15.20
2022-12-16T07:48:11.028Z,11.93
2022-12-16T07:50:56.430Z,15.37
2022-12-16T07:53:41.815Z,18.07
2022-12-16T07:56:27.195Z,15.73
2022-12-16T07:59:12.611Z,13.83
2022-12-16T08:01:58.098Z,8.30
2022-12-16T08:04:43.199Z,10.67
2022-12-16T08:07:28.593Z,10.97
2022-12-16T08:10:14.162Z,10.43
2022-12-16T08:12:59.708Z,11.60
2022-12-16T08:15:45.197Z,9.90
2022-12-16T08:18:30.317Z,8.23
2022-12-16T08:21:15.990Z,12.33
2022-12-16T08:24:01.679Z,9.53
2022-12-16T08:26:46.937Z,8.77
2022-12-16T08:29:44.240Z,11.13
2022-12-16T08:32:30.832Z,12.60
2022-12-16T08:35:16.203Z,15.70
2022-12-16T08:38:01.615Z,15.33
2022-12-16T08:40:47.170Z,17.63
2022-12-16T08:43:32.893Z,23.93
2022-12-16T08:46:18.328Z,22.67
2022-12-16T08:49:03.501Z,22.23
2022-12-16T08:51:48.996Z,19.60
2022-12-16T08:54:34.232Z,18.97
2022-12-16T08:57:20.879Z,14.67
2022-12-16T09:00:06.275Z,16.57
2022-12-16T09:02:51.875Z,16.73
2022-12-16T09:05:38.072Z,20.93
2022-12-16T09:08:23.436Z,18.00
2022-12-16T09:11:08.911Z,14.30
2022-12-16T09:13:54.179Z,16.30
2022-12-16T09:16:40.108Z,16.33
2022-12-16T09:19:25.201Z,18.17
2022-12-16T09:22:10.713Z,14.93
2022-12-16T09:24:56.178Z,21.03
2022-12-16T09:27:41.428Z,20.07
2022-12-16T09:30:26.799Z,23.53
2022-12-16T09:33:12.105Z,29.27
2022-12-16T09:35:57.494Z,25.73
2022-12-16T09:38:42.558Z,27.10
2022-12-16T09:41:51.240Z,30.93
2022-12-16T09:44:39.851Z,38.97
2022-12-16T09:47:36.942Z,38.03
2022-12-16T09:50:23.316Z,48.27
2022-12-16T09:53:12.563Z,68.20
2022-12-16T09:55:59.019Z,52.97
2022-12-16T09:58:46.513Z,51.00
2022-12-16T10:01:32.496Z,44.03
2022-12-16T10:04:17.761Z,50.07
2022-12-16T10:07:06.392Z,59.93
2022-12-16T10:10:00.974Z,56.50
2022-12-16T10:12:55.572Z,63.57
2022-12-16T10:15:53.232Z,62.07
2022-12-16T10:18:50.437Z,53.10
2022-12-16T10:21:39.552Z,60.57
2022-12-16T10:24:36.763Z,63.30
2022-12-16T10:27:27.846Z,58.17
2022-12-16T10:30:13.550Z,62.27
2022-12-16T10:33:04.066Z,64.50
2022-12-16T10:35:52.480Z,70.03
2022-12-16T10:38:40.898Z,54.03
2022-12-16T10:41:37.925Z,72.73
2022-12-16T10:44:25.154Z,68.23
2022-12-16T10:47:10.507Z,63.13
2022-12-16T10:49:56.196Z,59.70
2022-12-16T10:52:41.734Z,45.50
2022-12-16T10:55:34.180Z,37.93
2022-12-16T10:58:35.808Z,43.93
2022-12-16T11:01:38.698Z,44.07
2022-12-16T11:04:45.986Z,56.37
2022-12-16T11:07:49.947Z,63.70
2022-12-16T11:10:45.261Z,83.33
2022-12-16T11:13:51.110Z,82.23
2022-12-16T11:16:38.547Z,90.53
2022-12-16T11:19:36.986Z,89.77
2022-12-16T11:22:26.480Z,86.53
2022-12-16T11:25:41.268Z,86.90
2022-12-16T11:28:38.427Z,88.20
2022-12-16T11:31:25.727Z,83.20
2022-12-16T11:34:11.909Z,84.47
2022-12-16T11:36:57.797Z,80.53
2022-12-16T11:39:45.110Z,103.23
2022-12-16T11:42:38.553Z,83.40
2022-12-16T11:45:25.038Z,93.83
2022-12-16T11:48:28.796Z,95.50
2022-12-16T11:51:15.576Z,97.50
2022-12-16T11:54:09.546Z,87.27
2022-12-16T11:57:00.487Z,96.60
2022-12-16T11:59:45.816Z,95.10
2022-12-16T12:02:39.751Z,100.17
2022-12-16T12:05:25.474Z,103.60
2022-12-16T12:08:10.775Z,104.43
2022-12-16T12:11:04.277Z,114.17
2022-12-16T12:13:53.059Z,104.73
2022-12-16T12:16:57.721Z,103.40
2022-12-16T12:19:50.806Z,94.23
2022-12-16T12:23:01.638Z,110.13
2022-12-16T12:25:52.412Z,110.10
2022-12-16T12:29:00.768Z,95.17
2022-12-16T12:31:52.499Z,96.37
2022-12-16T12:34:37.865Z,105.20
2022-12-16T12:37:27.272Z,107.60
2022-12-16T12:40:22.278Z,111.97
2022-12-16T12:43:12.904Z,96.13
2022-12-16T12:46:07.578Z,110.73
2022-12-16T12:49:00.010Z,105.80
2022-12-16T12:51:49.230Z,101.10
2022-12-16T12:54:44.529Z,102.13
2022-12-16T12:57:31.903Z,97.10
2022-12-16T13:00:22.120Z,98.70
2022-12-16T13:03:07.240Z,108.30
2022-12-16T13:05:53.371Z,91.73
2022-12-16T13:08:51.061Z,96.90
2022-12-16T13:11:56.810Z,98.90
2022-12-16T13:14:51.596Z,98.67
2022-12-16T13:17:40.519Z,95.43
2022-12-16T13:20:44.594Z,109.40
2022-12-16T13:23:56.376Z,101.30
2022-12-16T13:26:45.477Z,103.57
2022-12-16T13:29:37.021Z,93.20
2022-12-16T13:32:32.912Z,93.80
2022-12-16T13:35:18.379Z,91.00
2022-12-16T13:38:30.114Z,103.87
2022-12-16T13:41:19.139Z,86.73
2022-12-16T13:44:07.793Z,103.90
2022-12-16T13:47:06.958Z,97.20
2022-12-16T13:49:55.393Z,90.23
2022-12-16T13:52:44.776Z,91.63
2022-12-16T13:55:38.355Z,87.23
2022-12-16T13:58:25.514Z,87.60
2022-12-16T14:01:16.691Z,100.30
2022-12-16T14:04:07.022Z,98.23
2022-12-16T14:06:53.410Z,94.57
2022-12-16T14:09:50.941Z,103.57
2022-12-16T14:12:49.250Z,111.70
2022-12-16T14:15:42.639Z,96.57
2022-12-16T14:18:50.988Z,104.87
2022-12-16T14:21:39.240Z,97.60
2022-12-16T14:24:35.791Z,99.53
2022-12-16T14:27:24.966Z,100.53
2022-12-16T14:30:10.531Z,104.13
2022-12-16T14:32:55.802Z,98.93
2022-12-16T14:35:42.863Z,111.07
2022-12-16T14:38:36.744Z,109.77
2022-12-16T14:41:22.177Z,108.10
2022-12-16T14:44:07.483Z,113.50
2022-12-16T14:46:52.891Z,112.60
2022-12-16T14:49:42.494Z,106.70
2022-12-16T14:52:34.382Z,112.47
2022-12-16T14:55:19.695Z,106.60
2022-12-16T14:58:20.061Z,119.90
2022-12-16T15:01:08.522Z,108.53
2022-12-16T15:03:58.976Z,113.87
2022-12-16T15:06:46.251Z,108.43
2022-12-16T15:09:39.113Z,125.93
2022-12-16T15:12:25.633Z,109.33
2022-12-16T15:15:12.651Z,106.03
2022-12-16T15:18:04.224Z,111.97
2022-12-16T15:20:51.099Z,118.53
2022-12-16T15:23:39.463Z,124.07
2022-12-16T15:26:25.610Z,103.57
2022-12-16T15:29:10.943Z,109.10
2022-12-16T15:32:02.961Z,106.53
2022-12-16T15:34:51.081Z,106.63
2022-12-16T15:37:38.108Z,109.87
2022-12-16T15:40:24.029Z,108.77
2022-12-16T15:43:11.004Z,110.40
2022-12-16T15:45:56.570Z,117.13
2022-12-16T15:48:43.726Z,110.00
2022-12-16T15:51:41.304Z,109.80
2022-12-16T15:54:51.204Z,116.37
2022-12-16T15:57:50.294Z,113.57
2022-12-16T16:00:38.842Z,117.70
2022-12-16T16:03:34.055Z,121.03
2022-12-16T16:06:19.536Z,115.13
2022-12-16T16:09:08.637Z,118.93
2022-12-16T16:11:53.932Z,102.70
2022-12-16T16:14:39.266Z,105.47
2022-12-16T16:17:33.347Z,106.53
2022-12-16T16:20:18.859Z,108.77
2022-12-16T16:23:04.215Z,106.43
2022-12-16T16:25:49.685Z,108.70
2022-12-16T16:28:34.948Z,110.50
2022-12-16T16:31:20.383Z,120.77
2022-12-16T16:34:05.643Z,119.37
2022-12-16T16:36:50.922Z,116.67
2022-12-16T16:39:36.372Z,118.87
2022-12-16T16:42:21.678Z,102.33
2022-12-16T16:45:07.008Z,117.10
2022-12-16T16:47:52.383Z,137.27
2022-12-16T16:50:37.925Z,115.80
2022-12-16T16:53:23.419Z,113.10
2022-12-16T16:56:18.143Z,123.83
2022-12-16T16:59:05.216Z,105.20
2022-12-16T17:01:50.756Z,97.90
2022-12-16T17:04:36.383Z,95.90
2022-12-16T17:07:21.599Z,102.37
2022-12-16T17:10:06.990Z,97.03
2022-12-16T17:12:52.403Z,114.63
2022-12-16T17:15:40.292Z,83.37
2022-12-16T17:18:25.844Z,88.70
2022-12-16T17:21:11.410Z,75.07
2022-12-16T17:23:56.846Z,81.13
2022-12-16T17:26:43.308Z,79.07
2022-12-16T17:29:35.907Z,74.43
2022-12-16T17:32:22.625Z,78.53
2022-12-16T17:35:08.007Z,76.83
2022-12-16T17:37:53.198Z,86.03
2022-12-16T17:40:38.703Z,77.97
2022-12-16T17:43:24.033Z,97.47
2022-12-16T17:46:15.674Z,94.03
2022-12-16T17:49:01.034Z,94.93
2022-12-16T17:51:46.537Z,91.97
2022-12-16T17:54:31.807Z,99.17
2022-12-16T17:57:17.242Z,117.37
2022-12-16T18:00:02.725Z,87.67
2022-12-16T18:02:57.993Z,81.07
2022-12-16T18:05:44.797Z,88.97
2022-12-16T18:08:30.586Z,80.40
2022-12-16T18:11:16.667Z,79.43
2022-12-16T18:14:02.028Z,84.80
2022-12-16T18:16:47.390Z,83.07
2022-12-16T18:19:33.709Z,78.50
2022-12-16T18:22:19.052Z,74.70
2022-12-16T18:25:04.422Z,64.37
2022-12-16T18:27:49.870Z,67.77
2022-12-16T18:30:35.325Z,75.17
2022-12-16T18:33:20.633Z,75.40
2022-12-16T18:36:06.055Z,75.87
2022-12-16T18:38:51.457Z,71.53
2022-12-16T18:41:38.792Z,71.47
2022-12-16T18:44:24.871Z,67.30
2022-12-16T18:47:10.364Z,69.50
2022-12-16T18:49:55.718Z,77.10
2022-12-16T18:52:41.203Z,69.77
2022-12-16T18:55:26.666Z,66.03
2022-12-16T18:58:42.157Z,63.50
2022-12-16T19:01:21.661Z,72.63
2022-12-16T19:04:07.273Z,69.90
2022-12-16T19:06:52.593Z,71.00
2022-12-16T19:09:38.164Z,74.27
2022-12-16T19:12:23.271Z,72.10
2022-12-16T19:15:08.710Z,74.63
2022-12-16T19:17:54.281Z,74.70
2022-12-16T19:20:40.244Z,66.00
2022-12-16T19:23:25.971Z,66.20
2022-12-16T19:26:17.767Z,70.13
2022-12-16T19:29:02.951Z,66.33
2022-12-16T19:31:48.758Z,72.77
2022-12-16T19:34:34.331Z,70.83
2022-12-16T19:37:19.617Z,67.67
2022-12-16T19:40:05.014Z,68.23
2022-12-16T19:42:50.274Z,71.53
2022-12-16T19:45:35.783Z,65.47
2022-12-16T19:48:21.142Z,59.27
2022-12-16T19:51:06.573Z,66.50
2022-12-16T19:53:51.918Z,66.03
2022-12-16T19:56:37.299Z,67.77
2022-12-16T19:59:22.779Z,69.13
2022-12-16T20:02:08.302Z,69.40
2022-12-16T20:04:56.143Z,70.40
2022-12-16T20:07:41.843Z,70.90
2022-12-16T20:10:27.207Z,66.00
2022-12-16T20:13:16.957Z,67.10
2022-12-16T20:16:06.419Z,70.77
2022-12-16T20:18:51.959Z,63.37
2022-12-16T20:21:37.142Z,61.63
2022-12-16T20:24:40.369Z,63.90
2022-12-16T20:27:26.094Z,63.13
2022-12-16T20:30:11.097Z,60.10
2022-12-16T20:32:56.689Z,66.53
2022-12-16T20:35:41.954Z,66.27
2022-12-16T20:38:27.438Z,67.30
2022-12-16T20:41:19.970Z,62.70
2022-12-16T20:44:05.952Z,64.37
2022-12-16T20:46:51.813Z,68.10
2022-12-16T20:49:37.387Z,69.53
2022-12-16T20:52:23.063Z,62.83
2022-12-16T20:55:08.469Z,66.97
2022-12-16T20:57:54.611Z,69.67
2022-12-16T21:00:41.365Z,68.00
2022-12-16T21:03:27.555Z,71.50
2022-12-16T21:06:13.071Z,75.10
2022-12-16T21:08:58.489Z,76.30
2022-12-16T21:11:43.725Z,73.33
2022-12-16T21:14:28.911Z,69.17
2022-12-16T21:17:14.443Z,74.77
2022-12-16T21:19:59.912Z,74.60
2022-12-16T21:22:45.406Z,78.67
2022-12-16T21:25:30.890Z,73.47
2022-12-16T21:28:16.815Z,76.67
2022-12-16T21:31:02.251Z,73.73
2022-12-16T21:33:48.051Z,72.43
2022-12-16T21:36:34.091Z,67.77
2022-12-16T21:39:19.484Z,71.00
2022-12-16T21:42:04.829Z,70.50
2022-12-16T21:44:50.217Z,66.37
2022-12-16T21:47:35.648Z,67.67
2022-12-16T21:50:21.037Z,67.77
2022-12-16T21:53:20.733Z,74.77
2022-12-16T21:56:12.775Z,65.20
2022-12-16T21:58:58.024Z,64.27
2022-12-16T22:01:43.510Z,64.33
2022-12-16T22:04:28.606Z,70.60
2022-12-16T22:07:14.044Z,75.67
2022-12-16T22:09:59.542Z,68.70
2022-12-16T22:12:45.115Z,70.70
2022-12-16T22:15:30.653Z,78.30
2022-12-16T22:18:16.040Z,78.23
2022-12-16T22:21:14.168Z,71.97
2022-12-16T22:23:59.496Z,78.17
2022-12-16T22:26:45.021Z,68.07
2022-12-16T22:29:30.549Z,76.63
2022-12-16T22:32:16.116Z,70.73
2022-12-16T22:35:01.671Z,74.23
2022-12-16T22:37:46.976Z,79.23
2022-12-16T22:40:32.327Z,65.47
2022-12-16T22:43:17.408Z,69.77
2022-12-16T22:46:02.925Z,67.73
2022-12-16T22:48:48.429Z,70.27
2022-12-16T22:51:34.299Z,68.43
2022-12-16T22:54:19.687Z,60.53
2022-12-16T22:57:04.935Z,63.20
2022-12-16T22:59:50.458Z,67.40
2022-12-16T23:02:35.826Z,70.83
2022-12-16T23:05:27.305Z,68.50
2022-12-16T23:08:13.224Z,69.37
2022-12-16T23:10:58.669Z,68.53
2022-12-16T23:13:46.401Z,68.30
2022-12-16T23:16:31.900Z,67.90
2022-12-16T23:19:17.332Z,69.67
2022-12-16T23:22:02.678Z,69.43
2022-12-16T23:24:48.039Z,70.83
2022-12-16T23:27:33.331Z,69.60
2022-12-16T23:30:18.893Z,68.20
2022-12-16T23:33:04.354Z,69.33
2022-12-16T23:35:49.710Z,66.93
2022-12-16T23:38:35.044Z,68.47
2022-12-16T23:41:20.530Z,63.50
2022-12-16T23:44:05.607Z,67.67
2022-12-16T23:46:50.846Z,63.83
2022-12-16T23:49:38.768Z,70.77
2022-12-16T23:52:24.292Z,67.43
2022-12-16T23:55:09.683Z,69.23
2022-12-16T23:57:56.186Z,68.60
